• Join FlightAware (Why Join?)
  • Login
  • US Flag 
06:59PM EDT


 

Airport Tracker/Info


-or-


 

Live Flight TrackerFlight Track Log ✈ KLM1692 ✈ 06-Sep-2013 ✈ LPPT / LIS - EHAM / AMS

Flight Track Log - Related Links

Times and Time Zones

All times are in EDT time to prevent confusion due to time zone crossing. See the KLM1692 flight status page for this flight to view local times or setup timezone preferences in your user account.

Time Position Orientation Groundspeed Altitude Reporting Facility
EDT Latitude Longitude Course Direction KTS MPH feet Rate Location/Type
01:42AM 38.8290 -9.1080 34° Northeast 185 213 2,900  Level FlightAware
01:43AM 38.8440 -9.0900 43° Northeast 194 223 3,600 1,440 Climbing FlightAware
01:43AM 38.8590 -9.0720 43° Northeast 223 257 4,000 1,200 Climbing FlightAware
01:43AM 38.8660 -9.0620 48° Northeast 239 275 4,200 1,200 Climbing FlightAware
01:44AM 38.8750 -9.0510 44° Northeast 257 296 4,400 1,800 Climbing FlightAware
01:44AM 38.8930 -9.0280 45° Northeast 270 311 5,100 2,400 Climbing FlightAware
01:44AM 38.9110 -9.0070 42° Northeast 274 315 6,000 2,700 Climbing FlightAware
01:45AM 38.9300 -8.9830 44° Northeast 278 320 6,900 2,700 Climbing FlightAware
01:45AM 38.9480 -8.9600 45° Northeast 282 325 7,800 2,760 Climbing FlightAware
01:45AM 38.9760 -8.9250 44° Northeast 281 323 9,200 2,460 Climbing FlightAware
01:46AM 39.0090 -8.8830 45° Northeast 298 343 10,500 1,620 Climbing FlightAware
01:47AM 39.0460 -8.8370 44° Northeast 335 386 11,100 1,440 Climbing FlightAware
01:47AM 39.0870 -8.7850 45° Northeast 355 409 12,200 2,040 Climbing FlightAware
01:48AM 39.1290 -8.7330 44° Northeast 368 423 13,500 2,280 Climbing FlightAware
01:48AM 39.1720 -8.6790 44° Northeast 379 436 14,900 2,460 Climbing FlightAware
01:49AM 39.2170 -8.6230 44° Northeast 387 445 16,400 2,400 Climbing FlightAware
01:49AM 39.2620 -8.5650 45° Northeast 398 458 17,700 2,100 Climbing FlightAware
01:50AM 39.3090 -8.5040 45° Northeast 408 470 18,900 1,920 Climbing FlightAware
01:51AM 39.3570 -8.4450 44° Northeast 420 483 20,000 1,860 Climbing FlightAware
01:51AM 39.4060 -8.3830 44° Northeast 430 495 21,100 2,220 Climbing FlightAware
01:52AM 39.4560 -8.3200 44° Northeast 427 491 22,600 2,340 Climbing FlightAware
01:52AM 39.5030 -8.2590 45° Northeast 426 490 23,900 2,100 Climbing FlightAware
01:53AM 39.5530 -8.1940 45° Northeast 429 494 25,100 1,680 Climbing FlightAware
01:54AM 39.6050 -8.1270 45° Northeast 439 505 25,900 1,320 Climbing FlightAware
01:54AM 39.6550 -8.0630 45° Northeast 449 517 26,700 1,260 Climbing FlightAware
01:55AM 39.7060 -7.9980 44° Northeast 458 527 27,400 1,080 Climbing FlightAware
01:55AM 39.7720 -7.9130 45° Northeast 469 540 28,200 1,080 Climbing FlightAware
01:56AM 39.8410 -7.8220 45° Northeast 480 552 29,000 1,020 Climbing FlightAware
01:57AM 39.9000 -7.7460 45° Northeast 488 562 29,600 960 Climbing FlightAware
01:57AM 39.9190 -7.7210 45° Northeast 491 565 29,800 900 Climbing FlightAware
01:58AM 39.9740 -7.6490 45° Northeast 498 573 30,300 900 Climbing FlightAware
01:58AM 40.0120 -7.6000 45° Northeast 502 578 30,700 1,080 Climbing FlightAware
01:58AM 40.0470 -7.5550 45° Northeast 504 580 31,100 1,380 Climbing FlightAware
01:59AM 40.0990 -7.4860 45° Northeast 502 578 31,900 1,380 Climbing FlightAware
01:59AM 40.1380 -7.4340 46° Northeast 501 577 32,400 1,260 Climbing FlightAware
01:59AM 40.1510 -7.4190 41° Northeast 501 577 32,600 1,200 Climbing FlightAware
02:00AM 40.2040 -7.3480 46° Northeast 502 578 33,200 1,140 Climbing FlightAware
02:00AM 40.2620 -7.2700 46° Northeast 502 578 33,900 1,140 Climbing FlightAware
02:01AM 40.2880 -7.2370 44° Northeast 502 578 34,200 1,200 Climbing FlightAware
02:01AM 40.3270 -7.1830 47° Northeast 500 575 34,700 1,080 Climbing FlightAware
02:02AM 40.3850 -7.1060 45° Northeast 499 574 35,300 960 Climbing FlightAware
02:02AM 40.4060 -7.0800 43° Northeast 499 574 35,500 1,080 Climbing FlightAware
02:02AM 40.4220 -7.0580 46° Northeast 499 574 35,700 840 Climbing FlightAware
02:02AM 40.4290 -7.0500 41° Northeast 499 574 35,700 420 Level FlightAware
02:02AM 40.4430 -7.0300 47° Northeast 500 575 35,800 480 Climbing FlightAware
02:03AM 40.4880 -6.9690 46° Northeast 504 580 36,000 180 Climbing FlightAware
02:03AM 40.5470 -6.8900 45° Northeast 504 580 36,000  Level FlightAware
02:04AM 40.6000 -6.8200 45° Northeast 504 580 36,000  Level FlightAware
02:05AM 40.6570 -6.7430 46° Northeast 504 580 36,000  Level FlightAware
02:05AM 40.7130 -6.6660 46° Northeast 504 580 36,000  Level FlightAware
02:06AM 40.7710 -6.5890 45° Northeast 502 578 36,000  Level FlightAware
02:06AM 40.8280 -6.5100 46° Northeast 501 577 36,000  Level FlightAware
02:07AM 40.8840 -6.4340 46° Northeast 500 575 36,000  Level FlightAware
02:07AM 40.9320 -6.3700 45° Northeast 499 574 36,000  Level FlightAware
02:08AM 40.9490 -6.3460 47° Northeast 500 575 36,000  Level FlightAware
02:08AM 41.0140 -6.2630 44° Northeast 499 574 36,000  Level FlightAware
02:09AM 41.0690 -6.2060 38° Northeast 495 570 36,000  Level FlightAware
02:09AM 41.1380 -6.1530 30° Northeast 493 567 36,000  Level FlightAware
02:10AM 41.2170 -6.0940 29° Northeast 493 567 36,000  Level FlightAware
02:10AM 41.2770 -6.0490 29° Northeast 492 566 36,000  Level FlightAware
02:11AM 41.3760 -5.9750 29° Northeast 492 566 36,000  Level FlightAware
02:12AM 41.4470 -5.9210 30° Northeast 492 566 36,000  Level FlightAware
02:12AM 41.5160 -5.8710 28° Northeast 492 566 36,000  Level FlightAware
02:13AM 41.5760 -5.8250 30° Northeast 491 565 36,000  Level FlightAware
02:14AM 41.6460 -5.7720 29° Northeast 491 565 36,000  Level FlightAware
02:14AM 41.7240 -5.7140 29° Northeast 490 564 36,000  Level FlightAware
02:15AM 41.7940 -5.6600 30° Northeast 491 565 36,000  Level FlightAware
02:15AM 41.8530 -5.6170 28° Northeast 491 565 36,000  Level FlightAware
02:16AM 41.9320 -5.5550 30° Northeast 490 564 36,000  Level FlightAware
02:16AM 41.9910 -5.5120 28° Northeast 489 563 36,000  Level FlightAware
02:17AM 42.0580 -5.4590 30° Northeast 489 563 36,000  Level FlightAware
02:18AM 42.1370 -5.4000 29° Northeast 489 563 36,000  Level FlightAware
02:18AM 42.1970 -5.3530 30° Northeast 488 562 36,000  Level FlightAware
02:19AM 42.2660 -5.3000 30° Northeast 488 562 36,000  Level FlightAware
02:19AM 42.3440 -5.2400 30° Northeast 487 560 36,000  Level FlightAware
02:20AM 42.4110 -5.1890 29° Northeast 486 559 36,000  Level FlightAware
02:21AM 42.4690 -5.1430 30° Northeast 486 559 36,000  Level FlightAware
02:21AM 42.5470 -5.0820 30° Northeast 484 557 36,000  Level FlightAware
02:22AM 42.6180 -5.0260 30° Northeast 483 556 36,000  Level FlightAware
02:22AM 42.6750 -4.9850 28° Northeast 481 554 36,000  Level FlightAware
02:23AM 42.7480 -4.9420 23° Northeast 480 552 36,000  Level FlightAware
02:24AM 42.8260 -4.8950 24° Northeast 479 551 36,000  Level FlightAware
02:24AM 42.8980 -4.8530 23° Northeast 479 551 36,000  Level FlightAware
02:25AM 42.9670 -4.8120 23° Northeast 479 551 36,000  Level FlightAware
02:25AM 43.0420 -4.7680 23° Northeast 480 552 36,000  Level FlightAware
02:26AM 43.1130 -4.7270 23° Northeast 480 552 36,000  Level FlightAware
02:26AM 43.1850 -4.6830 24° Northeast 481 554 36,000  Level FlightAware
02:27AM 43.2540 -4.6420 23° Northeast 481 554 36,000  Level FlightAware
02:28AM 43.3280 -4.5980 23° Northeast 482 555 36,000  Level FlightAware
02:28AM 43.3990 -4.5550 24° Northeast 481 554 36,000  Level FlightAware
02:29AM 43.4710 -4.5120 23° Northeast 481 554 36,000  Level FlightAware
02:29AM 43.5410 -4.4700 24° Northeast 480 552 36,000  Level FlightAware
02:30AM 43.6120 -4.4270 24° Northeast 479 551 36,000  Level FlightAware
02:30AM 43.6830 -4.3850 23° Northeast 477 549 36,000  Level FlightAware
02:31AM 43.7540 -4.3420 24° Northeast 476 548 36,000  Level FlightAware
02:32AM 43.8250 -4.2980 24° Northeast 476 548 36,000  Level FlightAware
02:32AM 43.8920 -4.2570 24° Northeast 475 547 36,000  Level FlightAware
02:33AM 43.9650 -4.2120 24° Northeast 476 548 36,000  Level FlightAware
02:33AM 44.0350 -4.1690 24° Northeast 477 549 36,000  Level FlightAware
02:34AM 44.1000 -4.1290 24° Northeast 477 549 36,000  Level FlightAware
02:35AM 44.1620 -4.0910 24° Northeast 477 549 36,000  Level FlightAware
02:35AM 44.2380 -4.0440 24° Northeast 475 547 36,000  Level FlightAware
02:36AM 44.3350 -3.9840 24° Northeast 475 547 36,000  Level FlightAware
02:37AM 44.3970 -3.9460 24° Northeast 475 547 36,000  Level FlightAware
02:37AM 44.4580 -3.9080 24° Northeast 475 547 36,000  Level FlightAware
02:38AM 44.5510 -3.8390 28° Northeast 475 547 36,000  Level FlightAware
02:38AM 44.6260 -3.7880 26° Northeast 474 545 36,000  Level FlightAware
02:39AM 44.6960 -3.7420 25° Northeast 474 545 36,000  Level FlightAware
02:40AM 44.7670 -3.6790 32° Northeast 478 550 36,000  Level FlightAware
02:40AM 44.8290 -3.6120 37° Northeast 478 550 36,000  Level FlightAware
02:41AM 44.8830 -3.5560 36° Northeast 478 550 36,000  Level FlightAware
02:41AM 44.9500 -3.4850 37° Northeast 478 550 36,000  Level FlightAware
02:42AM 45.0090 -3.4240 36° Northeast 478 550 36,000  Level FlightAware
02:42AM 45.0760 -3.3520 37° Northeast 477 549 36,000  Level FlightAware
02:43AM 45.1410 -3.2830 37° Northeast 477 549 36,000  Level FlightAware
02:44AM 45.2000 -3.2210 37° Northeast 477 549 36,000  Level FlightAware
02:44AM 45.2610 -3.1560 37° Northeast 477 549 36,000  Level FlightAware
02:45AM 45.3250 -3.0880 37° Northeast 478 550 36,000  Level FlightAware
02:45AM 45.3880 -3.0200 37° Northeast 478 550 36,000  Level FlightAware
02:46AM 45.4610 -2.9420 37° Northeast 472 543 36,000  Level FlightAware
02:47AM 45.5290 -2.8700 37° Northeast 472 543 36,000  Level FlightAware
02:47AM 45.5850 -2.8080 38° Northeast 471 542 36,000  Level FlightAware
02:48AM 45.6660 -2.7200 37° Northeast 478 550 36,000  Level FlightAware
02:49AM 45.7210 -2.6590 38° Northeast 476 548 36,000  Level FlightAware
02:49AM 45.7860 -2.5890 37° Northeast 475 547 36,000  Level FlightAware
02:50AM 45.8450 -2.5260 37° Northeast 474 545 36,000  Level FlightAware
02:50AM 45.9060 -2.4590 37° Northeast 473 544 36,000  Level FlightAware
02:51AM 45.9670 -2.3900 38° Northeast 475 547 36,000  Level FlightAware
02:52AM 46.0320 -2.3190 37° Northeast 477 549 36,000  Level FlightAware
02:52AM 46.0880 -2.2570 38° Northeast 480 552 36,000  Level FlightAware
02:53AM 46.1530 -2.1860 37° Northeast 482 555 36,000  Level FlightAware
02:53AM 46.2180 -2.1110 39° Northeast 482 555 36,000  Level FlightAware
02:54AM 46.2750 -2.0480 37° Northeast 482 555 36,000  Level FlightAware
02:54AM 46.3380 -1.9770 38° Northeast 482 555 36,000  Level FlightAware
02:55AM 46.4030 -1.9040 38° Northeast 480 552 36,000  Level FlightAware
02:56AM 46.4650 -1.8350 37° Northeast 480 552 36,000  Level FlightAware
02:56AM 46.5210 -1.7720 38° Northeast 480 552 36,000  Level FlightAware
02:57AM 46.5840 -1.7000 38° Northeast 480 552 36,000  Level FlightAware
02:57AM 46.6470 -1.6290 38° Northeast 480 552 36,000  Level FlightAware
02:58AM 46.7030 -1.5650 38° Northeast 480 552 36,000  Level FlightAware
02:58AM 46.7670 -1.4930 38° Northeast 480 552 36,000  Level FlightAware
02:59AM 46.8290 -1.4210 38° Northeast 480 552 36,000  Level FlightAware
03:00AM 46.8920 -1.3480 38° Northeast 482 555 36,000  Level FlightAware
03:00AM 46.9480 -1.2840 38° Northeast 482 555 36,000  Level FlightAware
03:01AM 47.0150 -1.2070 38° Northeast 483 556 36,000  Level FlightAware
03:01AM 47.0710 -1.1420 38° Northeast 483 556 36,000  Level FlightAware
03:02AM 47.1330 -1.0680 39° Northeast 484 557 36,000  Level FlightAware
03:03AM 47.1980 -0.9950 37° Northeast 485 558 36,000  Level FlightAware
03:03AM 47.2590 -0.9230 39° Northeast 486 559 36,000  Level FlightAware
03:04AM 47.3160 -0.8540 39° Northeast 487 560 36,000  Level FlightAware
03:04AM 47.3830 -0.7760 38° Northeast 490 564 36,000  Level FlightAware
03:05AM 47.4480 -0.7010 38° Northeast 492 566 36,000  Level FlightAware
03:05AM 47.5030 -0.6350 39° Northeast 493 567 36,000  Level FlightAware
03:06AM 47.5680 -0.5590 38° Northeast 494 568 36,000  Level FlightAware
03:07AM 47.6320 -0.4800 40° Northeast 494 568 36,000  Level FlightAware
03:07AM 47.6890 -0.4120 39° Northeast 495 570 36,000  Level FlightAware
03:08AM 47.7520 -0.3370 39° Northeast 495 570 36,000  Level FlightAware
03:08AM 47.8170 -0.2580 39° Northeast 494 568 36,000  Level FlightAware
03:09AM 47.8800 -0.1800 40° Northeast 492 566 36,000  Level FlightAware
03:10AM 47.9380 -0.1120 38° Northeast 491 565 36,000  Level FlightAware
03:10AM 48.0010 -0.0350 39° Northeast 491 565 36,000  Level FlightAware
03:11AM 48.0680 0.0470 39° Northeast 490 564 36,000  Level FlightAware
03:11AM 48.1060 0.0940 40° Northeast 489 563 36,000  Level FlightAware
03:12AM 48.1830 0.1880 39° Northeast 487 560 36,000  Level FlightAware
03:12AM 48.2450 0.2630 39° Northeast 486 559 36,000  Level FlightAware
03:13AM 48.3080 0.3420 40° Northeast 485 558 36,000  Level FlightAware
03:14AM 48.3600 0.4060 39° Northeast 485 558 36,000  Level FlightAware
03:14AM 48.4390 0.5030 39° Northeast 489 563 36,000  Level FlightAware
03:15AM 48.5020 0.5820 40° Northeast 492 566 36,000  Level FlightAware
03:16AM 48.5612 0.6571 40° Northeast 442 509 36,000  Level FlightAware UK
03:16AM 48.5610 0.6570 40° Northeast 493 567 36,000  Level FlightAware
03:16AM 48.6138 0.7233 40° Northeast 440 506 36,000  Level FlightAware UK
03:16AM 48.6240 0.7360 40° Northeast 494 568 36,000  Level FlightAware
03:17AM 48.6869 0.8186 40° Northeast 436 502 36,000  Level FlightAware UK
03:17AM 48.6870 0.8200 40° Northeast 491 565 36,000  Level FlightAware
03:17AM 48.7380 0.8900 40° Northeast 494 568 36,000  Level FlightAware
03:17AM 48.7469 0.9041 40° Northeast 440 506 36,000  Level FlightAware UK
03:18AM 48.7976 0.9741 40° Northeast 440 506 36,000  Level FlightAware UK
03:18AM 48.7990 0.9760 40° Northeast 497 572 36,000  Level FlightAware
03:18AM 48.8640 1.0630 41° Northeast 497 572 36,000  Level FlightAware
03:19AM 48.9190 1.1380 42° Northeast 497 572 36,000  Level FlightAware
03:20AM 48.9790 1.2230 43° Northeast 497 572 36,000  Level FlightAware
03:20AM 49.0334 1.2986 43° Northeast 444 511 36,000  Level FlightAware UK
03:20AM 49.0450 1.3120 43° Northeast 498 573 36,000  Level FlightAware
03:21AM 49.1000 1.3900 43° Northeast 498 573 36,000  Level FlightAware
03:21AM 49.1600 1.4720 42° Northeast 499 574 36,000  Level FlightAware
03:22AM 49.2185 1.5555 42° Northeast 442 509 36,000  Level FlightAware UK
03:22AM 49.2190 1.5550 42° Northeast 499 574 36,000  Level FlightAware
03:23AM 49.2803 1.6407 42° Northeast 444 511 36,000  Level FlightAware UK
03:23AM 49.2790 1.6380 42° Northeast 499 574 36,000  Level FlightAware
03:23AM 49.3360 1.7160 42° Northeast 500 575 36,000  Level FlightAware
03:23AM 49.3421 1.7258 42° Northeast 442 509 36,000  Level FlightAware UK
03:24AM 49.3935 1.7974 42° Northeast 444 511 36,000  Level FlightAware UK
03:24AM 49.3950 1.7970 42° Northeast 499 574 36,000  Level FlightAware
03:24AM 49.4550 1.8800 42° Northeast 500 575 36,000  Level FlightAware
03:25AM 49.5210 1.9710 42° Northeast 500 575 36,000  Level FlightAware
03:25AM 49.5800 2.0550 43° Northeast 499 574 36,000  Level FlightAware
03:26AM 49.6380 2.1370 42° Northeast 499 574 36,000  Level FlightAware
03:27AM 49.6970 2.2220 43° Northeast 500 575 36,000  Level FlightAware
03:27AM 49.7530 2.2990 43° Northeast 506 582 36,000  Level FlightAware
03:27AM 49.7643 2.3114 43° Northeast 444 511 36,000  Level FlightAware UK
03:28AM 49.8320 2.3680 29° Northeast 511 588 36,000 -120 Level FlightAware
03:28AM 49.9000 2.4270 29° Northeast 509 586 35,900 -1,260 Descending FlightAware
03:29AM 49.9740 2.4910 29° Northeast 507 583 34,600 -2,100 Descending FlightAware
03:30AM 50.0430 2.5530 30° Northeast 506 582 33,500 -2,040 Descending FlightAware
03:30AM 50.1200 2.6220 30° Northeast 502 578 32,200 -2,100 Descending FlightAware
03:31AM 50.1850 2.6830 31° Northeast 505 581 31,100 -2,040 Descending FlightAware
03:31AM 50.2570 2.7480 30° Northeast 504 580 29,900 -1,980 Descending FlightAware
03:32AM 50.3200 2.8050 30° Northeast 500 575 28,900 -1,500 Descending FlightAware
03:33AM 50.4120 2.8890 30° Northeast 503 579 28,000 -720 Descending FlightAware
03:33AM 50.4820 2.9510 29° Northeast 501 577 28,000  Level FlightAware
03:34AM 50.5480 3.0130 29° Northeast 484 557 28,000  Level FlightAware
03:34AM 50.5534 3.0200 29° Northeast 432 497 28,000  Level FlightAware UK
03:34AM 50.6113 3.0636 29° Northeast 416 479 28,000  Level FlightAware UK
03:34AM 50.6250 3.0710 29° Northeast 465 535 28,000 -660 Level FlightAware
03:35AM 50.6810 3.1110 24° Northeast 462 532 27,600 -1,020 Descending FlightAware
03:35AM 50.7521 3.1617 24° Northeast 406 467 26,900 -1,140 Descending FlightAware UK
03:35AM 50.7560 3.1640 24° Northeast 458 527 26,900 -960 Level FlightAware
03:36AM 50.8240 3.2100 23° Northeast 459 528 26,300 -1,080 Descending FlightAware
03:37AM 50.8910 3.2580 24° Northeast 454 522 25,700 -960 Descending FlightAware
03:37AM 50.9580 3.3050 24° Northeast 448 516 25,200 -1,020 Descending FlightAware
03:38AM 51.0260 3.3530 24° Northeast 444 511 24,500 -1,080 Descending FlightAware
03:38AM 51.0890 3.3980 24° Northeast 442 509 24,000 -960 Descending FlightAware
03:39AM 51.1460 3.4400 25° Northeast 440 506 23,500 -1,140 Descending FlightAware
03:40AM 51.2160 3.5030 29° Northeast 431 496 22,700 -1,560 Descending FlightAware
03:40AM 51.2770 3.5570 29° Northeast 422 486 21,600 -1,920 Descending FlightAware
03:41AM 51.3370 3.6090 28° Northeast 415 478 20,500 -1,920 Descending FlightAware
03:41AM 51.3920 3.6600 30° Northeast 408 470 19,400 -1,860 Descending FlightAware
03:42AM 51.4530 3.7140 29° Northeast 400 460 18,300 -1,860 Descending FlightAware
03:43AM 51.5090 3.7640 29° Northeast 392 451 17,200 -1,800 Descending FlightAware
03:43AM 51.5650 3.8150 30° Northeast 384 442 16,200 -1,800 Descending FlightAware
03:44AM 51.6200 3.8650 29° Northeast 377 434 15,100 -1,800 Descending FlightAware
03:44AM 51.6680 3.9090 30° Northeast 370 426 14,200 -1,800 Descending FlightAware
03:45AM 51.7137 3.9511 30° Northeast 338 389 13,300 -1,860 Descending FlightAware UK
03:45AM 51.7170 3.9530 30° Northeast 363 418 13,200 -1,740 Descending FlightAware
03:45AM 51.7740 4.0040 29° Northeast 354 407 12,100 -1,620 Descending FlightAware
03:46AM 51.8200 4.0470 30° Northeast 347 399 11,300 -1,680 Descending FlightAware
03:47AM 51.8677 4.0922 30° Northeast 316 364 10,300 -1,740 Descending FlightAware UK
03:47AM 51.8680 4.0920 30° Northeast 341 392 10,300 -600 Level FlightAware
03:47AM 51.9060 4.1250 28° Northeast 324 373 10,000 -300 Descending FlightAware
03:48AM 51.9580 4.1470 15° North 311 358 10,000 -120 Level FlightAware
03:48AM 51.9850 4.1580 14° North 308 354 9,900 -600 Descending FlightAware
03:48AM 52.0150 4.1700 14° North 311 358 9,600 -960 Descending FlightAware
03:49AM 52.0460 4.1830 14° North 313 360 9,200 -960 Descending FlightAware
03:49AM 52.0770 4.1960 14° North 314 361 8,900 -1,080 Descending FlightAware
03:49AM 52.1040 4.2060 13° North 310 357 8,500 -1,080 Descending FlightAware
03:50AM 52.1310 4.2190 16° North 309 356 8,200 -1,020 Descending FlightAware
03:50AM 52.1620 4.2400 23° Northeast 310 357 7,800 -960 Descending FlightAware
03:50AM 52.1900 4.2600 24° Northeast 307 353 7,500 -960 Descending FlightAware
03:51AM 52.2050 4.2710 24° Northeast 306 352 7,300 -1,080 Descending FlightAware
03:51AM 52.2350 4.2920 23° Northeast 303 349 6,900 -960 Descending FlightAware
03:51AM 52.2620 4.3110 23° Northeast 300 345 6,600 -1,080 Descending FlightAware
03:52AM 52.2870 4.3290 24° Northeast 294 338 6,200 -1,080 Descending FlightAware
03:52AM 52.3120 4.3460 23° Northeast 288 331 5,900 -1,080 Descending FlightAware
03:52AM 52.3300 4.3590 24° Northeast 285 328 5,600 -1,020 Descending FlightAware
03:53AM 52.3560 4.3780 24° Northeast 278 320 5,300 -900 Descending FlightAware
03:53AM 52.3780 4.3930 23° Northeast 273 314 5,000 -900 Descending FlightAware
03:53AM 52.4020 4.4110 25° Northeast 266 306 4,700 -840 Descending FlightAware
03:54AM 52.4270 4.4300 25° Northeast 259 298 4,400 -720 Descending FlightAware
03:54AM 52.4490 4.4460 24° Northeast 255 293 4,200 -600 Descending FlightAware
03:54AM 52.4730 4.4640 25° Northeast 257 296 4,000 -600 Descending FlightAware
03:55AM 52.4920 4.4790 26° Northeast 256 295 3,800 -420 Descending FlightAware
03:55AM 52.5160 4.4960 23° Northeast 253 291 3,700 -360 Descending FlightAware
03:55AM 52.5310 4.5090 28° Northeast 253 291 3,600 -720 Descending FlightAware
03:55AM 52.5340 4.5130 39° Northeast 253 291 3,500 -420 Descending FlightAware
03:56AM 52.5410 4.5260 48° Northeast 251 289 3,500 -600 Level FlightAware
03:56AM 52.5480 4.5700 75° East 233 268 3,200 -600 Descending FlightAware
03:56AM 52.5490 4.5910 86° East 224 258 3,200  Level FlightAware
03:57AM 52.5510 4.6280 85° East 206 237 3,200  Level FlightAware
03:57AM 52.5530 4.6570 84° East 202 232 3,200 -240 Level FlightAware
03:57AM 52.5540 4.6790 86° East 202 232 3,100 -300 Descending FlightAware
03:58AM 52.5450 4.7160 112° Southeast 187 215 3,000 -360 Descending FlightAware
03:58AM 52.5390 4.7210 153° Southeast 182 209 2,900 -480 Descending FlightAware
03:58AM 52.5220 4.7250 172° South 179 206 2,800 -180 Descending FlightAware
03:58AM 52.5040 4.7240 182° South 179 206 2,800 -300 Level FlightAware
03:59AM 52.4870 4.7230 182° South 182 209 2,600 -780 Descending FlightAware
03:59AM 52.4690 4.7220 182° South 182 209 2,300 -900 Descending FlightAware
03:59AM 52.4540 4.7200 185° South 162 186 2,000 -1,080 Descending FlightAware
04:00AM 52.4390 4.7190 182° South 160 184 1,600 -960 Descending FlightAware
04:00AM 52.4220 4.7170 184° South 143 165 1,300 -720 Descending FlightAware
04:00AM 52.4080 4.7160 182° South 143 165 1,100 -780 Descending FlightAware
04:01AM 52.3930 4.7150 182° South 148 170 800 -900 Descending FlightAware
04:01AM 52.3780 4.7130 185° South 149 171 500 -840 Descending FlightAware
04:01AM 52.3660 4.7120 183° South 152 175 300 -720 Descending FlightAware
04:02AM 52.3490 4.7110 182° South 130 150 -840 Descending FlightAware